KIND/IND METAR and TAF weather

Enter ICAO airport designator
Station Type Date Time Source
KIND METAR 2021/09/16 09:54 UTC NOAA

KIND 160954Z 03007KT 10SM CLR 15/13 A3007 RMK AO2 SLP178 T01500128 $


Station Type Date Time Source
KIND Decoded METAR 2021/09/16 09:54 UTC NOAA

INDIANAPOLIS INTERNATIONAL AIRPORT , IN, United States (KIND) 39-43N 86-17W 242M
Sep 16, 2021 - 05:54 AM EDT / 2021.09.16 0954 UTC
Wind: from the NNE (030 degrees) at 8 MPH (7 KT):0
Visibility: 10 mile(s):0
Sky conditions: clear
Temperature: 59.0 F (15.0 C)
Dew Point: 55.0 F (12.8 C)
Relative Humidity: 86%
Pressure (altimeter): 30.07 in. Hg (1018 hPa)
ob: KIND 160954Z 03007KT 10SM CLR 15/13 A3007 RMK AO2 SLP178 T01500128
cycle: 10

Station Type Date Time Source
KIND TAF 2021/09/16 06:22 UTC NOAA

TAF KIND 160520Z 1606/1712 07004KT P6SM FEW250
FM161600 10005KT P6SM FEW030
FM162200 12005KT P6SM FEW120

Example: see airport list